DAUO

Guemar Airport

Guemar, Algeria
METAR DAUO 181900Z 22004KT CAVOK 11/02 Q1017
Observed Flight Rules
Jan-18 @ 19:00 UTC (an hour ago) Visual Flight Rules
Wind Visibility Clouds
220° at 4 knots 10,000+ meters
  • Clear skies
Temperatures Readings
Current 11°C / 52°F
Dewpoint 2°C / 36°F
Humidity 54%
Altimeter 30.03" Hg
Pressure 1016.92 hPa
Elevation 63
METAR DAUO 181900Z 22004KT CAVOK 11/02 Q1017
Observed Flight Rules
Jan-18 @ 19:00 UTC
(an hour ago)
VFR
Wind Visibility
220° at 4 knots 10,000+ meters
Clouds
  • Clear skies
Temperature Dewpoint
11°C / 52°F 2°C / 36°F
Humidity Altimeter Pressure
54% 30.03" Hg 1016.92 hPa